Thomasville, GA

7:43 AM EDT on August 31, 2015 (GMT -0400)
Glen Arven CC | | Change Station
CLOSE
Current Station
Personal Weather Station
Location: Glen Arven CC, GA
Elevation: 276 ft
Nearby Weather Stations

Elev 276 ft 30.82 °N, 83.96 °W | Updated 2 minutes ago

Overcast
Overcast
72.7 °F
Feels Like 72.7 °F
N
3.1
Wind Variable Wind from NNE

Today
High -- | Low -- °F
--% Chance of Precip.
Yesterday
High -- | Low -- °F
Precip. -- in
7:11 AM 8:00 PM
Waning Gibbous, 96% visible
Pressure 30.04 in
Visibility 10.0 miles
Clouds Overcast 900 ft
Dew Point 70 °F
Humidity 92%
Rainfall 0.00 in
Snow Depth Not available.
UV 0 out of 12
Pollen 8.20 out of 12
Air Quality Not available.
Flu Activity Not available.
METAR KTVI 311115Z AUTO 00000KT 10SM OVC009 22/22 A3004 RMK AO2
Pressure 30.04 in
Visibility 10.0 miles
Clouds Overcast 900 ft
Dew Point 70 °F
Humidity 92%
Rainfall 0.00 in
Snow Depth Not available.
UV 0 out of 12
Pollen 8.20 out of 12
Air Quality Not available.
Flu Activity Not available.
METAR KTVI 311115Z AUTO 00000KT 10SM OVC009 22/22 A3004 RMK AO2

10-Day Weather Forecast

×

Almanac

Astronomy

Aug. 31, 2015 Rise Set
Actual Time
Civil Twilight
Nautical Twilight
Astronomical Twilight
Moon
Length of Visible Light
Length of Day
Tomorrow will be .
, % of the Moon is Illuminated

Today's Extremes

State Highs State Lows

Community

WunderPhotos

Upload Photos

1,851,219 photos uploaded!

WunderBlogs® & News

Nearby

Air Quality

  Air Quality AQ Index Pollutant
Not available.

Snow Depth

Station Depth Elevation

Earthquake Activity

City Distance Mag. Time & Date
Minimum magnitude displayed is 2.5.

Coastal Water Temperatures

Place Temperature

Stations

Nearby Weather Stations

Station Location Temp. Windchill Dew Point Humidity Wind Precip. Elev Updated Type